sensor_id;sensor_type;location;lat;lon;timestamp;P1;durP1;ratioP1;P2;durP2;ratioP2
43835;SDS011;39345;43.964;25.340;2024-01-07T00:01:07;39.28;;;25.55;;
43835;SDS011;39345;43.964;25.340;2024-01-07T00:03:35;39.83;;;26.25;;
43835;SDS011;39345;43.964;25.340;2024-01-07T00:06:03;40.53;;;25.95;;
43835;SDS011;39345;43.964;25.340;2024-01-07T00:08:31;38.63;;;25.65;;
43835;SDS011;39345;43.964;25.340;2024-01-07T00:10:58;42.25;;;26.48;;
43835;SDS011;39345;43.964;25.340;2024-01-07T00:13:26;42.17;;;25.85;;
43835;SDS011;39345;43.964;25.340;2024-01-07T00:15:54;41.10;;;26.25;;
43835;SDS011;39345;43.964;25.340;2024-01-07T00:18:22;42.85;;;27.45;;
43835;SDS011;39345;43.964;25.340;2024-01-07T00:20:51;39.83;;;26.27;;
43835;SDS011;39345;43.964;25.340;2024-01-07T00:23:18;42.20;;;27.23;;
43835;SDS011;39345;43.964;25.340;2024-01-07T00:25:47;46.47;;;27.88;;
43835;SDS011;39345;43.964;25.340;2024-01-07T00:28:15;45.67;;;28.27;;
43835;SDS011;39345;43.964;25.340;2024-01-07T00:30:42;41.72;;;26.95;;
43835;SDS011;39345;43.964;25.340;2024-01-07T00:33:11;41.88;;;26.60;;
43835;SDS011;39345;43.964;25.340;2024-01-07T00:35:38;40.00;;;26.02;;
43835;SDS011;39345;43.964;25.340;2024-01-07T00:38:06;37.65;;;24.85;;
43835;SDS011;39345;43.964;25.340;2024-01-07T00:40:33;39.63;;;25.65;;
43835;SDS011;39345;43.964;25.340;2024-01-07T00:43:01;43.17;;;25.33;;
43835;SDS011;39345;43.964;25.340;2024-01-07T00:45:28;37.40;;;25.42;;
43835;SDS011;39345;43.964;25.340;2024-01-07T00:47:56;34.90;;;23.92;;
43835;SDS011;39345;43.964;25.340;2024-01-07T00:50:24;37.58;;;24.38;;
43835;SDS011;39345;43.964;25.340;2024-01-07T00:52:52;39.40;;;25.08;;
43835;SDS011;39345;43.964;25.340;2024-01-07T00:55:19;37.03;;;24.42;;
43835;SDS011;39345;43.964;25.340;2024-01-07T00:57:49;37.33;;;23.92;;
43835;SDS011;39345;43.964;25.340;2024-01-07T01:00:17;39.13;;;24.42;;
43835;SDS011;39345;43.964;25.340;2024-01-07T01:02:45;38.33;;;24.23;;
43835;SDS011;39345;43.964;25.340;2024-01-07T01:05:13;38.67;;;23.80;;
43835;SDS011;39345;43.964;25.340;2024-01-07T01:07:40;36.40;;;24.02;;
43835;SDS011;39345;43.964;25.340;2024-01-07T01:10:08;36.83;;;24.17;;
43835;SDS011;39345;43.964;25.340;2024-01-07T01:12:35;37.20;;;24.15;;
43835;SDS011;39345;43.964;25.340;2024-01-07T01:15:03;36.72;;;24.23;;
43835;SDS011;39345;43.964;25.340;2024-01-07T01:17:31;39.47;;;23.92;;
43835;SDS011;39345;43.964;25.340;2024-01-07T01:19:58;39.25;;;25.98;;
43835;SDS011;39345;43.964;25.340;2024-01-07T01:22:26;42.13;;;26.90;;
43835;SDS011;39345;43.964;25.340;2024-01-07T01:24:53;40.33;;;26.00;;
43835;SDS011;39345;43.964;25.340;2024-01-07T01:27:22;40.13;;;25.27;;
43835;SDS011;39345;43.964;25.340;2024-01-07T01:29:50;43.90;;;26.45;;
43835;SDS011;39345;43.964;25.340;2024-01-07T01:32:17;44.08;;;27.30;;
43835;SDS011;39345;43.964;25.340;2024-01-07T01:34:45;41.00;;;27.40;;
43835;SDS011;39345;43.964;25.340;2024-01-07T01:37:12;42.80;;;26.00;;
43835;SDS011;39345;43.964;25.340;2024-01-07T01:39:40;43.13;;;27.42;;
43835;SDS011;39345;43.964;25.340;2024-01-07T01:42:08;41.83;;;26.48;;
43835;SDS011;39345;43.964;25.340;2024-01-07T01:44:36;43.75;;;26.80;;
43835;SDS011;39345;43.964;25.340;2024-01-07T01:47:03;44.67;;;26.45;;
43835;SDS011;39345;43.964;25.340;2024-01-07T01:49:33;37.78;;;25.33;;
43835;SDS011;39345;43.964;25.340;2024-01-07T01:52:02;38.83;;;25.00;;
43835;SDS011;39345;43.964;25.340;2024-01-07T01:54:30;38.60;;;25.30;;
43835;SDS011;39345;43.964;25.340;2024-01-07T01:56:58;39.33;;;24.27;;
43835;SDS011;39345;43.964;25.340;2024-01-07T01:59:25;36.85;;;24.42;;
43835;SDS011;39345;43.964;25.340;2024-01-07T02:01:53;38.85;;;24.02;;
43835;SDS011;39345;43.964;25.340;2024-01-07T02:04:21;37.65;;;24.83;;
43835;SDS011;39345;43.964;25.340;2024-01-07T02:06:49;40.90;;;25.38;;
43835;SDS011;39345;43.964;25.340;2024-01-07T02:09:17;36.72;;;25.63;;
43835;SDS011;39345;43.964;25.340;2024-01-07T02:11:59;42.10;;;27.55;;
43835;SDS011;39345;43.964;25.340;2024-01-07T02:14:27;44.80;;;26.67;;
43835;SDS011;39345;43.964;25.340;2024-01-07T02:16:55;43.90;;;27.55;;
43835;SDS011;39345;43.964;25.340;2024-01-07T02:19:22;42.38;;;25.75;;
43835;SDS011;39345;43.964;25.340;2024-01-07T02:21:50;40.40;;;25.73;;
43835;SDS011;39345;43.964;25.340;2024-01-07T02:24:18;38.63;;;24.23;;
43835;SDS011;39345;43.964;25.340;2024-01-07T02:26:46;36.97;;;24.90;;
43835;SDS011;39345;43.964;25.340;2024-01-07T02:29:13;37.88;;;24.45;;
43835;SDS011;39345;43.964;25.340;2024-01-07T02:31:41;37.58;;;24.90;;
43835;SDS011;39345;43.964;25.340;2024-01-07T02:34:09;39.38;;;26.30;;
43835;SDS011;39345;43.964;25.340;2024-01-07T02:36:37;40.83;;;25.02;;
43835;SDS011;39345;43.964;25.340;2024-01-07T02:39:05;37.80;;;24.58;;
43835;SDS011;39345;43.964;25.340;2024-01-07T02:41:32;37.83;;;25.33;;
43835;SDS011;39345;43.964;25.340;2024-01-07T02:44:00;38.65;;;24.58;;
43835;SDS011;39345;43.964;25.340;2024-01-07T02:46:27;40.53;;;24.63;;
43835;SDS011;39345;43.964;25.340;2024-01-07T02:48:55;37.95;;;25.40;;
43835;SDS011;39345;43.964;25.340;2024-01-07T02:51:23;34.50;;;23.05;;
43835;SDS011;39345;43.964;25.340;2024-01-07T02:53:51;39.25;;;22.73;;
43835;SDS011;39345;43.964;25.340;2024-01-07T02:56:18;32.10;;;21.75;;
43835;SDS011;39345;43.964;25.340;2024-01-07T02:58:46;30.55;;;21.27;;
43835;SDS011;39345;43.964;25.340;2024-01-07T03:01:13;32.60;;;20.50;;
43835;SDS011;39345;43.964;25.340;2024-01-07T03:03:41;28.67;;;20.00;;
43835;SDS011;39345;43.964;25.340;2024-01-07T03:06:08;33.42;;;20.25;;
43835;SDS011;39345;43.964;25.340;2024-01-07T03:08:36;31.90;;;19.27;;
43835;SDS011;39345;43.964;25.340;2024-01-07T03:11:04;27.52;;;17.95;;
43835;SDS011;39345;43.964;25.340;2024-01-07T03:13:32;30.33;;;16.88;;
43835;SDS011;39345;43.964;25.340;2024-01-07T03:16:00;25.30;;;16.95;;
43835;SDS011;39345;43.964;25.340;2024-01-07T03:18:27;27.00;;;16.60;;
43835;SDS011;39345;43.964;25.340;2024-01-07T03:20:56;26.17;;;16.05;;
43835;SDS011;39345;43.964;25.340;2024-01-07T03:23:24;25.25;;;17.05;;
43835;SDS011;39345;43.964;25.340;2024-01-07T03:25:52;25.00;;;16.42;;
43835;SDS011;39345;43.964;25.340;2024-01-07T03:28:19;28.45;;;17.40;;
43835;SDS011;39345;43.964;25.340;2024-01-07T03:30:47;28.92;;;16.55;;
43835;SDS011;39345;43.964;25.340;2024-01-07T03:33:14;25.83;;;17.20;;
43835;SDS011;39345;43.964;25.340;2024-01-07T03:35:42;23.98;;;16.55;;
43835;SDS011;39345;43.964;25.340;2024-01-07T03:38:10;27.80;;;16.77;;
43835;SDS011;39345;43.964;25.340;2024-01-07T03:40:37;25.10;;;16.10;;
43835;SDS011;39345;43.964;25.340;2024-01-07T03:43:05;26.35;;;14.77;;
43835;SDS011;39345;43.964;25.340;2024-01-07T03:45:32;23.02;;;13.77;;
43835;SDS011;39345;43.964;25.340;2024-01-07T03:48:00;20.10;;;13.20;;
43835;SDS011;39345;43.964;25.340;2024-01-07T03:50:27;20.25;;;12.85;;
43835;SDS011;39345;43.964;25.340;2024-01-07T03:52:55;22.13;;;13.13;;
43835;SDS011;39345;43.964;25.340;2024-01-07T03:55:22;24.15;;;13.40;;
43835;SDS011;39345;43.964;25.340;2024-01-07T03:57:50;20.90;;;13.90;;
43835;SDS011;39345;43.964;25.340;2024-01-07T04:00:17;18.60;;;13.00;;
43835;SDS011;39345;43.964;25.340;2024-01-07T04:02:45;20.52;;;12.32;;
43835;SDS011;39345;43.964;25.340;2024-01-07T04:05:13;21.67;;;12.90;;
43835;SDS011;39345;43.964;25.340;2024-01-07T04:07:41;19.92;;;12.00;;
43835;SDS011;39345;43.964;25.340;2024-01-07T04:10:09;19.08;;;12.63;;
43835;SDS011;39345;43.964;25.340;2024-01-07T04:12:36;15.77;;;11.40;;
43835;SDS011;39345;43.964;25.340;2024-01-07T04:15:04;17.83;;;11.40;;
43835;SDS011;39345;43.964;25.340;2024-01-07T04:17:32;18.10;;;10.85;;
43835;SDS011;39345;43.964;25.340;2024-01-07T04:20:00;16.85;;;10.45;;
43835;SDS011;39345;43.964;25.340;2024-01-07T04:22:27;17.13;;;10.98;;
43835;SDS011;39345;43.964;25.340;2024-01-07T04:24:55;14.82;;;9.52;;
43835;SDS011;39345;43.964;25.340;2024-01-07T04:27:22;15.55;;;10.15;;
43835;SDS011;39345;43.964;25.340;2024-01-07T04:29:51;16.88;;;9.45;;
43835;SDS011;39345;43.964;25.340;2024-01-07T04:32:19;14.60;;;9.18;;
43835;SDS011;39345;43.964;25.340;2024-01-07T04:34:46;13.80;;;8.90;;
43835;SDS011;39345;43.964;25.340;2024-01-07T04:37:14;13.75;;;9.60;;
43835;SDS011;39345;43.964;25.340;2024-01-07T04:39:41;15.85;;;8.93;;
43835;SDS011;39345;43.964;25.340;2024-01-07T04:42:09;12.90;;;8.30;;
43835;SDS011;39345;43.964;25.340;2024-01-07T04:44:39;12.68;;;6.30;;
43835;SDS011;39345;43.964;25.340;2024-01-07T04:49:53;6.88;;;4.95;;
43835;SDS011;39345;43.964;25.340;2024-01-07T04:52:21;10.73;;;5.22;;
43835;SDS011;39345;43.964;25.340;2024-01-07T04:54:53;9.68;;;4.40;;
43835;SDS011;39345;43.964;25.340;2024-01-07T04:57:21;8.20;;;4.20;;
43835;SDS011;39345;43.964;25.340;2024-01-07T04:59:49;5.95;;;3.80;;
43835;SDS011;39345;43.964;25.340;2024-01-07T05:02:17;7.03;;;4.18;;
43835;SDS011;39345;43.964;25.340;2024-01-07T05:04:44;8.82;;;4.55;;
43835;SDS011;39345;43.964;25.340;2024-01-07T05:07:12;7.53;;;4.43;;
43835;SDS011;39345;43.964;25.340;2024-01-07T05:09:39;7.40;;;4.55;;
43835;SDS011;39345;43.964;25.340;2024-01-07T05:12:07;7.60;;;4.47;;
43835;SDS011;39345;43.964;25.340;2024-01-07T05:14:35;6.80;;;4.63;;
43835;SDS011;39345;43.964;25.340;2024-01-07T05:17:03;10.63;;;4.50;;
43835;SDS011;39345;43.964;25.340;2024-01-07T05:19:31;7.30;;;4.32;;
43835;SDS011;39345;43.964;25.340;2024-01-07T05:21:59;7.47;;;4.35;;
43835;SDS011;39345;43.964;25.340;2024-01-07T05:24:26;10.38;;;4.45;;
43835;SDS011;39345;43.964;25.340;2024-01-07T05:26:56;5.53;;;3.70;;
43835;SDS011;39345;43.964;25.340;2024-01-07T05:29:24;6.22;;;3.38;;
43835;SDS011;39345;43.964;25.340;2024-01-07T05:31:51;5.32;;;2.65;;
43835;SDS011;39345;43.964;25.340;2024-01-07T05:34:19;4.68;;;2.67;;
43835;SDS011;39345;43.964;25.340;2024-01-07T05:36:47;5.10;;;2.50;;
43835;SDS011;39345;43.964;25.340;2024-01-07T05:39:14;6.25;;;2.80;;
43835;SDS011;39345;43.964;25.340;2024-01-07T05:41:42;6.03;;;2.60;;
43835;SDS011;39345;43.964;25.340;2024-01-07T05:44:09;6.13;;;3.13;;
43835;SDS011;39345;43.964;25.340;2024-01-07T05:46:40;4.75;;;2.85;;
43835;SDS011;39345;43.964;25.340;2024-01-07T05:49:08;4.28;;;2.65;;
43835;SDS011;39345;43.964;25.340;2024-01-07T05:51:39;4.78;;;2.60;;
43835;SDS011;39345;43.964;25.340;2024-01-07T05:54:07;7.50;;;3.20;;
43835;SDS011;39345;43.964;25.340;2024-01-07T05:56:38;6.57;;;3.35;;
43835;SDS011;39345;43.964;25.340;2024-01-07T05:59:09;8.93;;;4.80;;
43835;SDS011;39345;43.964;25.340;2024-01-07T06:01:36;6.45;;;3.47;;
43835;SDS011;39345;43.964;25.340;2024-01-07T06:04:04;7.03;;;3.78;;
43835;SDS011;39345;43.964;25.340;2024-01-07T06:06:32;6.18;;;3.78;;
43835;SDS011;39345;43.964;25.340;2024-01-07T06:09:00;8.13;;;4.30;;
43835;SDS011;39345;43.964;25.340;2024-01-07T06:11:29;6.45;;;4.30;;
43835;SDS011;39345;43.964;25.340;2024-01-07T06:13:56;6.18;;;4.47;;
43835;SDS011;39345;43.964;25.340;2024-01-07T06:16:24;7.88;;;4.65;;
43835;SDS011;39345;43.964;25.340;2024-01-07T06:18:51;9.13;;;4.70;;
43835;SDS011;39345;43.964;25.340;2024-01-07T06:21:19;8.35;;;4.95;;
43835;SDS011;39345;43.964;25.340;2024-01-07T06:23:46;9.35;;;5.40;;
43835;SDS011;39345;43.964;25.340;2024-01-07T06:26:14;9.48;;;5.95;;
43835;SDS011;39345;43.964;25.340;2024-01-07T06:28:42;10.05;;;6.35;;
43835;SDS011;39345;43.964;25.340;2024-01-07T06:31:10;10.18;;;6.03;;
43835;SDS011;39345;43.964;25.340;2024-01-07T06:33:37;8.85;;;5.68;;
43835;SDS011;39345;43.964;25.340;2024-01-07T06:36:05;13.38;;;7.05;;
43835;SDS011;39345;43.964;25.340;2024-01-07T06:38:33;13.88;;;6.88;;
43835;SDS011;39345;43.964;25.340;2024-01-07T06:41:00;14.98;;;7.93;;
43835;SDS011;39345;43.964;25.340;2024-01-07T06:43:31;13.02;;;7.45;;
43835;SDS011;39345;43.964;25.340;2024-01-07T06:45:58;13.82;;;6.72;;
43835;SDS011;39345;43.964;25.340;2024-01-07T06:48:26;11.77;;;6.82;;
43835;SDS011;39345;43.964;25.340;2024-01-07T06:50:54;13.43;;;7.82;;
43835;SDS011;39345;43.964;25.340;2024-01-07T06:53:21;11.35;;;7.72;;
43835;SDS011;39345;43.964;25.340;2024-01-07T06:55:49;15.02;;;8.35;;
43835;SDS011;39345;43.964;25.340;2024-01-07T06:58:16;12.70;;;9.38;;
43835;SDS011;39345;43.964;25.340;2024-01-07T07:00:45;16.83;;;11.43;;
43835;SDS011;39345;43.964;25.340;2024-01-07T07:03:13;20.67;;;11.35;;
43835;SDS011;39345;43.964;25.340;2024-01-07T07:05:40;21.77;;;13.15;;
43835;SDS011;39345;43.964;25.340;2024-01-07T07:08:08;26.80;;;15.85;;
43835;SDS011;39345;43.964;25.340;2024-01-07T07:10:35;27.40;;;16.25;;
43835;SDS011;39345;43.964;25.340;2024-01-07T07:13:03;25.73;;;16.52;;
43835;SDS011;39345;43.964;25.340;2024-01-07T07:15:31;29.83;;;18.50;;
43835;SDS011;39345;43.964;25.340;2024-01-07T07:17:58;27.33;;;16.98;;
43835;SDS011;39345;43.964;25.340;2024-01-07T07:20:26;40.45;;;16.98;;
43835;SDS011;39345;43.964;25.340;2024-01-07T07:22:54;31.52;;;20.15;;
43835;SDS011;39345;43.964;25.340;2024-01-07T07:25:21;29.42;;;20.98;;
43835;SDS011;39345;43.964;25.340;2024-01-07T07:27:49;34.25;;;19.77;;
43835;SDS011;39345;43.964;25.340;2024-01-07T07:30:16;28.80;;;18.77;;
43835;SDS011;39345;43.964;25.340;2024-01-07T07:32:44;30.15;;;21.27;;
43835;SDS011;39345;43.964;25.340;2024-01-07T07:35:11;24.33;;;17.05;;
43835;SDS011;39345;43.964;25.340;2024-01-07T07:37:39;30.25;;;17.13;;
43835;SDS011;39345;43.964;25.340;2024-01-07T07:40:06;25.25;;;17.98;;
43835;SDS011;39345;43.964;25.340;2024-01-07T07:42:34;28.58;;;17.25;;
43835;SDS011;39345;43.964;25.340;2024-01-07T07:45:02;22.80;;;13.60;;
43835;SDS011;39345;43.964;25.340;2024-01-07T07:47:29;26.02;;;14.32;;
43835;SDS011;39345;43.964;25.340;2024-01-07T07:49:57;20.88;;;14.43;;
43835;SDS011;39345;43.964;25.340;2024-01-07T07:52:25;22.75;;;14.45;;
43835;SDS011;39345;43.964;25.340;2024-01-07T07:54:52;18.77;;;11.93;;
43835;SDS011;39345;43.964;25.340;2024-01-07T07:57:21;18.05;;;12.00;;
43835;SDS011;39345;43.964;25.340;2024-01-07T07:59:51;18.23;;;11.48;;
43835;SDS011;39345;43.964;25.340;2024-01-07T08:02:19;18.33;;;11.13;;
43835;SDS011;39345;43.964;25.340;2024-01-07T08:04:47;18.40;;;9.85;;
43835;SDS011;39345;43.964;25.340;2024-01-07T08:07:15;16.45;;;9.98;;
43835;SDS011;39345;43.964;25.340;2024-01-07T08:09:42;14.40;;;8.88;;
43835;SDS011;39345;43.964;25.340;2024-01-07T08:12:10;15.70;;;9.30;;
43835;SDS011;39345;43.964;25.340;2024-01-07T08:14:38;14.73;;;11.93;;
43835;SDS011;39345;43.964;25.340;2024-01-07T08:17:09;14.07;;;9.15;;
43835;SDS011;39345;43.964;25.340;2024-01-07T08:19:36;15.10;;;9.63;;
43835;SDS011;39345;43.964;25.340;2024-01-07T08:22:04;13.90;;;9.43;;
43835;SDS011;39345;43.964;25.340;2024-01-07T08:24:32;13.65;;;8.50;;
43835;SDS011;39345;43.964;25.340;2024-01-07T08:26:59;14.77;;;10.10;;
43835;SDS011;39345;43.964;25.340;2024-01-07T08:29:27;16.63;;;10.25;;
43835;SDS011;39345;43.964;25.340;2024-01-07T08:31:54;15.00;;;10.07;;
43835;SDS011;39345;43.964;25.340;2024-01-07T08:34:22;18.45;;;10.95;;
43835;SDS011;39345;43.964;25.340;2024-01-07T08:36:49;18.40;;;10.73;;
43835;SDS011;39345;43.964;25.340;2024-01-07T08:39:17;16.70;;;10.57;;
43835;SDS011;39345;43.964;25.340;2024-01-07T08:41:45;17.55;;;10.32;;
43835;SDS011;39345;43.964;25.340;2024-01-07T08:44:13;20.55;;;10.95;;
43835;SDS011;39345;43.964;25.340;2024-01-07T08:46:40;16.90;;;11.50;;
43835;SDS011;39345;43.964;25.340;2024-01-07T08:49:08;18.25;;;11.05;;
43835;SDS011;39345;43.964;25.340;2024-01-07T08:51:35;16.75;;;10.20;;
43835;SDS011;39345;43.964;25.340;2024-01-07T08:54:04;15.73;;;10.02;;
43835;SDS011;39345;43.964;25.340;2024-01-07T08:56:31;14.93;;;9.38;;
43835;SDS011;39345;43.964;25.340;2024-01-07T08:58:59;12.30;;;8.07;;
43835;SDS011;39345;43.964;25.340;2024-01-07T09:01:27;12.07;;;6.53;;
43835;SDS011;39345;43.964;25.340;2024-01-07T09:03:54;11.63;;;7.55;;
43835;SDS011;39345;43.964;25.340;2024-01-07T09:06:22;10.40;;;7.05;;
43835;SDS011;39345;43.964;25.340;2024-01-07T09:08:49;13.35;;;6.78;;
43835;SDS011;39345;43.964;25.340;2024-01-07T09:11:20;10.20;;;5.85;;
43835;SDS011;39345;43.964;25.340;2024-01-07T09:13:48;8.68;;;6.07;;
43835;SDS011;39345;43.964;25.340;2024-01-07T09:16:16;10.85;;;7.32;;
43835;SDS011;39345;43.964;25.340;2024-01-07T09:18:44;12.60;;;8.38;;
43835;SDS011;39345;43.964;25.340;2024-01-07T09:21:12;8.98;;;5.47;;
43835;SDS011;39345;43.964;25.340;2024-01-07T09:23:40;11.65;;;6.25;;
43835;SDS011;39345;43.964;25.340;2024-01-07T09:26:08;22.08;;;16.23;;
43835;SDS011;39345;43.964;25.340;2024-01-07T09:28:35;30.15;;;22.40;;
43835;SDS011;39345;43.964;25.340;2024-01-07T09:31:04;31.70;;;22.38;;
43835;SDS011;39345;43.964;25.340;2024-01-07T09:33:32;32.05;;;23.42;;
43835;SDS011;39345;43.964;25.340;2024-01-07T09:36:00;38.38;;;26.05;;
43835;SDS011;39345;43.964;25.340;2024-01-07T09:38:40;35.25;;;25.15;;
43835;SDS011;39345;43.964;25.340;2024-01-07T09:41:08;41.25;;;27.45;;
43835;SDS011;39345;43.964;25.340;2024-01-07T09:43:36;36.80;;;26.33;;
43835;SDS011;39345;43.964;25.340;2024-01-07T09:46:03;41.35;;;28.75;;
43835;SDS011;39345;43.964;25.340;2024-01-07T09:48:31;48.35;;;30.02;;
43835;SDS011;39345;43.964;25.340;2024-01-07T09:51:00;43.40;;;30.48;;
43835;SDS011;39345;43.964;25.340;2024-01-07T09:53:30;44.53;;;30.92;;
43835;SDS011;39345;43.964;25.340;2024-01-07T09:56:12;45.08;;;30.30;;
43835;SDS011;39345;43.964;25.340;2024-01-07T09:58:45;43.28;;;29.90;;
43835;SDS011;39345;43.964;25.340;2024-01-07T10:01:19;46.00;;;31.02;;
43835;SDS011;39345;43.964;25.340;2024-01-07T10:03:47;46.47;;;31.92;;
43835;SDS011;39345;43.964;25.340;2024-01-07T10:06:17;49.20;;;32.50;;
43835;SDS011;39345;43.964;25.340;2024-01-07T10:08:46;42.15;;;29.20;;
43835;SDS011;39345;43.964;25.340;2024-01-07T10:11:14;37.10;;;26.02;;
43835;SDS011;39345;43.964;25.340;2024-01-07T10:13:44;37.63;;;26.63;;
43835;SDS011;39345;43.964;25.340;2024-01-07T10:16:14;36.95;;;26.60;;
43835;SDS011;39345;43.964;25.340;2024-01-07T10:18:42;40.72;;;27.83;;
43835;SDS011;39345;43.964;25.340;2024-01-07T10:21:10;54.25;;;38.40;;
43835;SDS011;39345;43.964;25.340;2024-01-07T10:23:38;57.40;;;38.85;;
43835;SDS011;39345;43.964;25.340;2024-01-07T10:26:05;50.55;;;36.72;;
43835;SDS011;39345;43.964;25.340;2024-01-07T10:28:48;38.88;;;26.83;;
43835;SDS011;39345;43.964;25.340;2024-01-07T10:31:16;39.85;;;26.35;;
43835;SDS011;39345;43.964;25.340;2024-01-07T10:33:47;40.78;;;29.67;;
43835;SDS011;39345;43.964;25.340;2024-01-07T10:36:15;41.05;;;28.25;;
43835;SDS011;39345;43.964;25.340;2024-01-07T10:38:44;40.75;;;28.60;;
43835;SDS011;39345;43.964;25.340;2024-01-07T10:41:12;38.80;;;26.50;;
43835;SDS011;39345;43.964;25.340;2024-01-07T10:43:42;38.10;;;26.98;;
43835;SDS011;39345;43.964;25.340;2024-01-07T10:46:09;42.22;;;28.15;;
43835;SDS011;39345;43.964;25.340;2024-01-07T10:48:38;42.30;;;28.38;;
43835;SDS011;39345;43.964;25.340;2024-01-07T10:51:10;39.60;;;28.85;;
43835;SDS011;39345;43.964;25.340;2024-01-07T10:53:39;41.53;;;29.15;;
43835;SDS011;39345;43.964;25.340;2024-01-07T10:56:11;33.38;;;24.27;;
43835;SDS011;39345;43.964;25.340;2024-01-07T10:58:38;37.63;;;25.95;;
43835;SDS011;39345;43.964;25.340;2024-01-07T11:01:06;36.53;;;25.38;;
43835;SDS011;39345;43.964;25.340;2024-01-07T11:06:25;35.38;;;25.35;;
43835;SDS011;39345;43.964;25.340;2024-01-07T11:08:59;36.90;;;26.83;;
43835;SDS011;39345;43.964;25.340;2024-01-07T11:11:35;37.58;;;24.27;;
43835;SDS011;39345;43.964;25.340;2024-01-07T11:14:04;31.65;;;23.27;;
43835;SDS011;39345;43.964;25.340;2024-01-07T11:16:41;31.42;;;22.20;;
43835;SDS011;39345;43.964;25.340;2024-01-07T11:19:12;34.53;;;23.33;;
43835;SDS011;39345;43.964;25.340;2024-01-07T11:21:41;34.67;;;23.35;;
43835;SDS011;39345;43.964;25.340;2024-01-07T11:24:09;33.35;;;23.00;;
43835;SDS011;39345;43.964;25.340;2024-01-07T11:26:36;31.20;;;21.73;;
43835;SDS011;39345;43.964;25.340;2024-01-07T11:29:05;26.45;;;20.08;;
43835;SDS011;39345;43.964;25.340;2024-01-07T11:34:07;26.25;;;19.00;;
43835;SDS011;39345;43.964;25.340;2024-01-07T11:36:35;28.23;;;19.25;;
43835;SDS011;39345;43.964;25.340;2024-01-07T11:39:03;26.27;;;18.92;;
43835;SDS011;39345;43.964;25.340;2024-01-07T11:41:36;22.95;;;16.80;;
43835;SDS011;39345;43.964;25.340;2024-01-07T11:44:04;22.77;;;17.13;;
43835;SDS011;39345;43.964;25.340;2024-01-07T11:46:33;21.55;;;15.82;;
43835;SDS011;39345;43.964;25.340;2024-01-07T11:49:01;20.60;;;13.65;;
43835;SDS011;39345;43.964;25.340;2024-01-07T11:51:30;19.10;;;13.20;;
43835;SDS011;39345;43.964;25.340;2024-01-07T11:53:59;20.67;;;14.27;;
43835;SDS011;39345;43.964;25.340;2024-01-07T11:56:27;16.20;;;11.65;;
43835;SDS011;39345;43.964;25.340;2024-01-07T11:58:55;16.92;;;11.63;;
43835;SDS011;39345;43.964;25.340;2024-01-07T12:01:24;15.68;;;11.05;;
43835;SDS011;39345;43.964;25.340;2024-01-07T12:03:55;16.50;;;10.50;;
43835;SDS011;39345;43.964;25.340;2024-01-07T12:06:23;12.05;;;9.25;;
43835;SDS011;39345;43.964;25.340;2024-01-07T12:08:51;16.08;;;11.65;;
43835;SDS011;39345;43.964;25.340;2024-01-07T12:11:19;21.10;;;14.65;;
43835;SDS011;39345;43.964;25.340;2024-01-07T12:13:47;21.48;;;17.70;;
43835;SDS011;39345;43.964;25.340;2024-01-07T12:16:17;25.52;;;18.08;;
43835;SDS011;39345;43.964;25.340;2024-01-07T12:18:44;24.85;;;16.63;;
43835;SDS011;39345;43.964;25.340;2024-01-07T12:21:18;26.35;;;17.52;;
43835;SDS011;39345;43.964;25.340;2024-01-07T12:23:48;23.35;;;16.52;;
43835;SDS011;39345;43.964;25.340;2024-01-07T12:26:17;19.77;;;14.70;;
43835;SDS011;39345;43.964;25.340;2024-01-07T12:28:51;21.60;;;15.43;;
43835;SDS011;39345;43.964;25.340;2024-01-07T12:31:19;19.58;;;14.73;;
43835;SDS011;39345;43.964;25.340;2024-01-07T12:33:47;19.65;;;14.05;;
43835;SDS011;39345;43.964;25.340;2024-01-07T12:36:15;15.93;;;10.93;;
43835;SDS011;39345;43.964;25.340;2024-01-07T12:38:43;13.77;;;10.02;;
43835;SDS011;39345;43.964;25.340;2024-01-07T12:41:10;15.27;;;11.38;;
43835;SDS011;39345;43.964;25.340;2024-01-07T12:43:38;14.95;;;11.07;;
43835;SDS011;39345;43.964;25.340;2024-01-07T12:46:06;13.80;;;10.82;;
43835;SDS011;39345;43.964;25.340;2024-01-07T12:48:33;18.13;;;12.18;;
43835;SDS011;39345;43.964;25.340;2024-01-07T12:51:01;17.77;;;13.45;;
43835;SDS011;39345;43.964;25.340;2024-01-07T12:53:29;20.63;;;15.13;;
43835;SDS011;39345;43.964;25.340;2024-01-07T12:55:57;22.40;;;16.33;;
43835;SDS011;39345;43.964;25.340;2024-01-07T12:58:24;21.77;;;17.17;;
43835;SDS011;39345;43.964;25.340;2024-01-07T13:00:52;25.75;;;18.90;;
43835;SDS011;39345;43.964;25.340;2024-01-07T13:03:20;24.92;;;18.30;;
43835;SDS011;39345;43.964;25.340;2024-01-07T13:05:48;23.20;;;18.05;;
43835;SDS011;39345;43.964;25.340;2024-01-07T13:08:16;24.38;;;18.33;;
43835;SDS011;39345;43.964;25.340;2024-01-07T13:10:54;25.38;;;18.70;;
43835;SDS011;39345;43.964;25.340;2024-01-07T13:13:22;26.20;;;19.35;;
43835;SDS011;39345;43.964;25.340;2024-01-07T13:15:49;28.88;;;20.35;;
43835;SDS011;39345;43.964;25.340;2024-01-07T13:18:17;27.02;;;19.70;;
43835;SDS011;39345;43.964;25.340;2024-01-07T13:20:46;24.98;;;18.40;;
43835;SDS011;39345;43.964;25.340;2024-01-07T13:23:13;28.40;;;20.20;;
43835;SDS011;39345;43.964;25.340;2024-01-07T13:25:41;27.98;;;20.83;;
43835;SDS011;39345;43.964;25.340;2024-01-07T13:28:08;27.42;;;20.50;;
43835;SDS011;39345;43.964;25.340;2024-01-07T13:30:38;31.02;;;21.67;;
43835;SDS011;39345;43.964;25.340;2024-01-07T13:33:07;31.17;;;22.80;;
43835;SDS011;39345;43.964;25.340;2024-01-07T13:35:35;29.30;;;21.05;;
43835;SDS011;39345;43.964;25.340;2024-01-07T13:38:02;27.25;;;20.52;;
43835;SDS011;39345;43.964;25.340;2024-01-07T13:40:30;26.33;;;19.83;;
43835;SDS011;39345;43.964;25.340;2024-01-07T13:42:57;26.80;;;19.80;;
43835;SDS011;39345;43.964;25.340;2024-01-07T13:45:25;24.88;;;19.08;;
43835;SDS011;39345;43.964;25.340;2024-01-07T13:47:53;27.15;;;19.77;;
43835;SDS011;39345;43.964;25.340;2024-01-07T13:50:20;25.83;;;18.30;;
43835;SDS011;39345;43.964;25.340;2024-01-07T13:52:48;29.05;;;19.83;;
43835;SDS011;39345;43.964;25.340;2024-01-07T13:55:17;35.50;;;22.50;;
43835;SDS011;39345;43.964;25.340;2024-01-07T13:57:45;33.35;;;23.98;;
43835;SDS011;39345;43.964;25.340;2024-01-07T14:00:12;30.23;;;22.58;;
43835;SDS011;39345;43.964;25.340;2024-01-07T14:02:45;35.10;;;23.00;;
43835;SDS011;39345;43.964;25.340;2024-01-07T14:05:13;32.20;;;22.88;;
43835;SDS011;39345;43.964;25.340;2024-01-07T14:07:41;33.80;;;24.10;;
43835;SDS011;39345;43.964;25.340;2024-01-07T14:10:09;40.55;;;28.50;;
43835;SDS011;39345;43.964;25.340;2024-01-07T14:12:36;33.92;;;25.67;;
43835;SDS011;39345;43.964;25.340;2024-01-07T14:15:04;34.40;;;24.67;;
43835;SDS011;39345;43.964;25.340;2024-01-07T14:17:33;33.90;;;23.75;;
43835;SDS011;39345;43.964;25.340;2024-01-07T14:20:00;36.72;;;24.63;;
43835;SDS011;39345;43.964;25.340;2024-01-07T14:22:29;29.33;;;21.38;;
43835;SDS011;39345;43.964;25.340;2024-01-07T14:24:57;47.78;;;30.90;;
43835;SDS011;39345;43.964;25.340;2024-01-07T14:27:24;42.03;;;29.50;;